createdAt,value
2017-04-24T00:00:12.849Z,1021.58
2017-04-24T00:01:34.771Z,1021.6
2017-04-24T00:02:56.409Z,1021.52
2017-04-24T00:04:18.628Z,1021.57
2017-04-24T00:05:40.884Z,1021.53
2017-04-24T00:07:02.560Z,1021.55
2017-04-24T00:08:24.070Z,1021.55
2017-04-24T00:09:45.909Z,1021.51
2017-04-24T00:11:08.051Z,1021.46
2017-04-24T00:12:30.590Z,1021.49
2017-04-24T00:13:52.731Z,1021.42
2017-04-24T00:15:14.876Z,1021.43
2017-04-24T00:16:37.379Z,1021.41
2017-04-24T00:17:59.200Z,1021.41
2017-04-24T00:19:21.028Z,1021.39
2017-04-24T00:20:42.850Z,1021.38
2017-04-24T00:22:04.689Z,1021.37
2017-04-24T00:23:26.247Z,1021.32
2017-04-24T00:24:48.070Z,1021.31
2017-04-24T00:26:09.909Z,1021.35
2017-04-24T00:27:32.397Z,1021.34
2017-04-24T00:28:53.929Z,1021.33
2017-04-24T00:30:15.767Z,1021.29
2017-04-24T00:31:36.948Z,1021.29
2017-04-24T00:32:59.400Z,1021.2
2017-04-24T00:34:21.549Z,1021.22
2017-04-24T00:35:43.037Z,1021.26
2017-04-24T00:37:04.903Z,1021.21
2017-04-24T00:38:27.025Z,1021.21
2017-04-24T00:39:48.539Z,1021.19
2017-04-24T00:41:10.092Z,1021.16
2017-04-24T00:42:31.906Z,1021.15
2017-04-24T00:43:54.689Z,1021.09
2017-04-24T00:45:16.564Z,1021.09
2017-04-24T00:46:38.063Z,1021.07
2017-04-24T00:48:00.010Z,1021.06
2017-04-24T00:49:22.168Z,1021.05
2017-04-24T00:50:44.010Z,1021.04
2017-04-24T00:52:05.848Z,1021.03
2017-04-24T00:53:27.662Z,1021
2017-04-24T00:54:50.142Z,1020.99
2017-04-24T00:56:12.630Z,1020.92
2017-04-24T00:57:34.761Z,1020.94
2017-04-24T00:58:57.299Z,1020.9
2017-04-24T01:00:19.759Z,1020.93
2017-04-24T01:01:41.902Z,1020.92
2017-04-24T01:03:03.769Z,1020.89
2017-04-24T01:04:25.931Z,1020.8
2017-04-24T01:05:48.706Z,1020.78
2017-04-24T01:07:10.848Z,1020.79
2017-04-24T01:08:32.672Z,1020.68
2017-04-24T01:09:55.116Z,1020.66
2017-04-24T01:11:17.181Z,1020.63
2017-04-24T01:12:38.999Z,1020.61
2017-04-24T01:14:00.830Z,1020.6
2017-04-24T01:15:23.390Z,1020.58
2017-04-24T01:16:44.940Z,1020.54
2017-04-24T01:18:07.096Z,1020.5
2017-04-24T01:19:29.226Z,1020.49
2017-04-24T01:20:51.359Z,1020.49
2017-04-24T01:22:13.495Z,1020.44
2017-04-24T01:23:35.038Z,1020.5
2017-04-24T01:24:56.868Z,1020.45
2017-04-24T01:26:18.424Z,1020.43
2017-04-24T01:27:40.558Z,1020.36
2017-04-24T01:29:03.021Z,1020.33
2017-04-24T01:30:24.860Z,1020.3
2017-04-24T01:31:46.358Z,1020.29
2017-04-24T01:33:08.869Z,1020.3
2017-04-24T01:34:30.082Z,1020.23
2017-04-24T01:35:51.605Z,1020.21
2017-04-24T01:37:14.069Z,1020.22
2017-04-24T01:38:36.261Z,1020.22
2017-04-24T01:39:58.404Z,1020.14
2017-04-24T01:41:19.998Z,1020.16
2017-04-24T01:42:41.816Z,1020.18
2017-04-24T01:44:03.951Z,1020.2
2017-04-24T01:45:25.819Z,1020.18
2017-04-24T01:46:47.374Z,1020.17
2017-04-24T01:48:09.247Z,1020.13
2017-04-24T01:49:31.432Z,1020.12
2017-04-24T01:50:53.267Z,1020.08
2017-04-24T01:52:14.137Z,1020.04
2017-04-24T01:53:35.648Z,1020.07
2017-04-24T01:54:58.144Z,1020.03
2017-04-24T01:56:20.285Z,1019.99
2017-04-24T01:57:42.743Z,1019.99
2017-04-24T01:59:04.268Z,1019.97
2017-04-24T02:00:27.086Z,1019.89
2017-04-24T02:01:49.236Z,1019.92
2017-04-24T02:03:11.087Z,1019.88
2017-04-24T02:04:33.297Z,1019.84
2017-04-24T02:05:55.176Z,1019.81
2017-04-24T02:07:17.000Z,1019.75
2017-04-24T02:08:39.153Z,1019.69
2017-04-24T02:10:01.042Z,1019.72
2017-04-24T02:11:22.569Z,1019.69
2017-04-24T02:12:44.402Z,1019.65
2017-04-24T02:14:06.941Z,1019.65
2017-04-24T02:15:28.556Z,1019.67
2017-04-24T02:16:50.737Z,1019.64
2017-04-24T02:18:12.651Z,1019.61
2017-04-24T02:19:34.592Z,1019.57
2017-04-24T02:20:56.473Z,1019.55
2017-04-24T02:22:18.431Z,1019.56
2017-04-24T02:23:39.608Z,1019.52
2017-04-24T02:25:01.426Z,1019.51
2017-04-24T02:26:22.937Z,1019.48
2017-04-24T02:27:45.106Z,1019.47
2017-04-24T02:29:07.044Z,1019.42
2017-04-24T02:30:28.901Z,1019.41
2017-04-24T02:31:51.349Z,1019.36
2017-04-24T02:33:13.453Z,1019.38
2017-04-24T02:34:35.300Z,1019.38
2017-04-24T02:35:57.159Z,1019.34
2017-04-24T02:37:19.628Z,1019.34
2017-04-24T02:38:41.792Z,1019.28
2017-04-24T02:40:03.949Z,1019.29
2017-04-24T02:41:25.764Z,1019.26
2017-04-24T02:42:46.953Z,1019.3
2017-04-24T02:44:09.801Z,1019.27
2017-04-24T02:45:31.622Z,1019.23
2017-04-24T02:46:54.084Z,1019.23
2017-04-24T02:48:16.008Z,1019.19
2017-04-24T02:49:38.287Z,1019.16
2017-04-24T02:50:59.469Z,1019.12
2017-04-24T02:52:21.672Z,1019.07
2017-04-24T02:53:43.241Z,1019.03
2017-04-24T02:55:06.065Z,1018.95
2017-04-24T02:56:27.263Z,1018.94
2017-04-24T02:57:48.798Z,1018.91
2017-04-24T02:59:10.306Z,1018.9
2017-04-24T03:00:32.967Z,1018.91
2017-04-24T03:01:54.478Z,1018.88
2017-04-24T03:03:16.831Z,1018.89
2017-04-24T03:04:39.058Z,1018.85
2017-04-24T03:06:01.228Z,1018.8
2017-04-24T03:07:23.557Z,1018.78
2017-04-24T03:08:45.099Z,1018.73
2017-04-24T03:10:06.909Z,1018.75
2017-04-24T03:11:29.449Z,1018.75
2017-04-24T03:12:51.304Z,1018.74
2017-04-24T03:14:12.836Z,1018.73
2017-04-24T03:15:34.718Z,1018.71
2017-04-24T03:16:56.891Z,1018.65
2017-04-24T03:18:18.418Z,1018.67
2017-04-24T03:19:40.557Z,1018.61
2017-04-24T03:21:02.706Z,1018.57
2017-04-24T03:22:24.931Z,1018.53
2017-04-24T03:23:47.205Z,1018.48
2017-04-24T03:25:09.019Z,1018.51
2017-04-24T03:26:30.209Z,1018.48
2017-04-24T03:27:52.299Z,1018.43
2017-04-24T03:29:14.428Z,1018.33
2017-04-24T03:30:36.618Z,1018.32
2017-04-24T03:31:58.518Z,1018.32
2017-04-24T03:33:20.688Z,1018.31
2017-04-24T03:34:42.907Z,1018.26
2017-04-24T03:36:04.892Z,1018.23
2017-04-24T03:37:26.699Z,1018.21
2017-04-24T03:38:49.149Z,1018.21
2017-04-24T03:40:11.163Z,1018.2
2017-04-24T03:41:33.300Z,1018.19
2017-04-24T03:42:54.777Z,1018.12
2017-04-24T03:44:16.641Z,1018.08
2017-04-24T03:45:38.492Z,1018.06
2017-04-24T03:47:00.639Z,1018.05
2017-04-24T03:48:22.769Z,1018.02
2017-04-24T03:49:44.585Z,1018.01
2017-04-24T03:51:06.731Z,1017.97
2017-04-24T03:52:29.192Z,1017.93
2017-04-24T03:53:51.012Z,1017.89
2017-04-24T03:55:12.877Z,1017.9
2017-04-24T03:56:35.007Z,1017.9
2017-04-24T03:58:29.121Z,1017.9
2017-04-24T03:59:50.678Z,1017.85
2017-04-24T04:01:12.527Z,1017.8
2017-04-24T04:02:34.650Z,1017.83
2017-04-24T04:03:56.240Z,1017.76
2017-04-24T04:05:18.068Z,1017.77
2017-04-24T04:06:39.930Z,1017.78
2017-04-24T04:08:01.751Z,1017.74
2017-04-24T04:09:23.920Z,1017.73
2017-04-24T04:11:18.031Z,1017.71
2017-04-24T04:12:40.539Z,1017.7
2017-04-24T04:14:03.059Z,1017.7
2017-04-24T04:15:25.189Z,1017.63
2017-04-24T04:16:47.301Z,1017.6
2017-04-24T04:18:08.808Z,1017.62
2017-04-24T04:19:30.957Z,1017.55
2017-04-24T04:20:52.830Z,1017.53
2017-04-24T04:22:14.958Z,1017.55
2017-04-24T04:23:37.099Z,1017.52
2017-04-24T04:24:58.308Z,1017.51
2017-04-24T04:26:20.520Z,1017.55
2017-04-24T04:27:42.595Z,1017.52
2017-04-24T04:29:05.053Z,1017.48
2017-04-24T04:30:27.189Z,1017.47
2017-04-24T04:31:48.079Z,1017.45
2017-04-24T04:33:10.648Z,1017.4
2017-04-24T04:34:33.112Z,1017.39
2017-04-24T04:35:55.251Z,1017.36
2017-04-24T04:37:17.693Z,1017.32
2017-04-24T04:38:40.240Z,1017.33
2017-04-24T04:40:02.108Z,1017.3
2017-04-24T04:41:23.609Z,1017.29
2017-04-24T04:42:46.049Z,1017.26
2017-04-24T04:44:08.259Z,1017.24
2017-04-24T04:45:30.435Z,1017.21
2017-04-24T04:46:52.266Z,1017.15
2017-04-24T04:48:14.089Z,1017.16
2017-04-24T04:49:36.890Z,1017.13
2017-04-24T04:50:58.730Z,1017.13
2017-04-24T04:52:20.927Z,1017.08
2017-04-24T04:53:42.447Z,1017.02
2017-04-24T04:55:04.519Z,1016.97
2017-04-24T04:56:26.974Z,1016.94
2017-04-24T04:57:48.479Z,1016.96
2017-04-24T04:59:11.097Z,1016.89
2017-04-24T05:00:33.551Z,1016.88
2017-04-24T05:01:55.050Z,1016.92
2017-04-24T05:03:17.638Z,1016.88
2017-04-24T05:04:39.671Z,1016.82
2017-04-24T05:06:02.258Z,1016.79
2017-04-24T05:07:24.444Z,1016.76
2017-04-24T05:08:46.601Z,1016.74
2017-04-24T05:10:08.775Z,1016.77
2017-04-24T05:11:31.287Z,1016.77
2017-04-24T05:12:53.475Z,1016.75
2017-04-24T05:14:15.597Z,1016.75
2017-04-24T05:15:37.427Z,1016.78
2017-04-24T05:16:59.581Z,1016.73
2017-04-24T05:18:21.729Z,1016.72
2017-04-24T05:19:43.897Z,1016.71
2017-04-24T05:21:05.424Z,1016.67
2017-04-24T05:22:27.989Z,1016.67
2017-04-24T05:23:50.432Z,1016.64
2017-04-24T05:25:12.610Z,1016.61
2017-04-24T05:26:34.308Z,1016.61
2017-04-24T05:27:56.485Z,1016.62
2017-04-24T05:29:18.625Z,1016.62
2017-04-24T05:30:40.890Z,1016.57
2017-04-24T05:32:02.808Z,1016.59
2017-04-24T05:33:25.493Z,1016.56
2017-04-24T05:34:48.062Z,1016.54
2017-04-24T05:36:09.260Z,1016.5
2017-04-24T05:37:31.410Z,1016.47
2017-04-24T05:38:53.888Z,1016.48
2017-04-24T05:40:15.718Z,1016.42
2017-04-24T05:41:37.555Z,1016.45
2017-04-24T05:42:59.708Z,1016.4
2017-04-24T05:44:22.150Z,1016.36
2017-04-24T05:45:43.987Z,1016.34
2017-04-24T05:47:05.813Z,1016.39
2017-04-24T05:48:27.951Z,1016.34
2017-04-24T05:49:50.089Z,1016.35
2017-04-24T05:51:11.582Z,1016.29
2017-04-24T05:52:33.822Z,1016.25
2017-04-24T05:53:55.972Z,1016.28
2017-04-24T05:55:18.086Z,1016.24
2017-04-24T05:56:39.686Z,1016.25
2017-04-24T05:58:01.869Z,1016.31
2017-04-24T05:59:23.725Z,1016.29
2017-04-24T06:00:45.551Z,1016.27
2017-04-24T06:02:07.047Z,1016.26
2017-04-24T06:03:28.974Z,1016.16
2017-04-24T06:04:51.466Z,1016.25
2017-04-24T06:06:14.229Z,1016.19
2017-04-24T06:07:35.439Z,1016.15
2017-04-24T06:08:57.582Z,1016.22
2017-04-24T06:10:20.042Z,1016.21
2017-04-24T06:11:42.880Z,1016.15
2017-04-24T06:13:04.728Z,1016.13
2017-04-24T06:14:26.564Z,1016.14
2017-04-24T06:15:48.521Z,1016.12
2017-04-24T06:17:10.729Z,1016.13
2017-04-24T06:18:32.557Z,1016.09
2017-04-24T06:19:54.399Z,1016.09
2017-04-24T06:21:16.539Z,1016.07
2017-04-24T06:22:39.418Z,1016.07
2017-04-24T06:24:01.239Z,1016.06
2017-04-24T06:25:23.694Z,1016.1
2017-04-24T06:26:46.464Z,1016.04
2017-04-24T06:28:08.960Z,1016.08
2017-04-24T06:29:31.489Z,1016.08
2017-04-24T06:30:53.642Z,1015.96
2017-04-24T06:32:15.618Z,1016.04
2017-04-24T06:33:37.074Z,1016
2017-04-24T06:34:58.900Z,1015.99
2017-04-24T06:36:21.362Z,1016.02
2017-04-24T06:37:42.555Z,1015.92
2017-04-24T06:39:04.687Z,1015.91
2017-04-24T06:40:26.950Z,1015.91
2017-04-24T06:41:49.121Z,1015.86
2017-04-24T06:43:11.268Z,1015.88
2017-04-24T06:44:33.089Z,1015.78
2017-04-24T06:45:55.371Z,1015.82
2017-04-24T06:47:17.836Z,1015.86
2017-04-24T06:48:39.983Z,1015.82
2017-04-24T06:50:02.474Z,1015.86
2017-04-24T06:51:24.609Z,1015.8
2017-04-24T06:52:46.119Z,1015.72
2017-04-24T06:54:08.578Z,1015.71
2017-04-24T06:55:30.817Z,1015.74
2017-04-24T06:56:52.968Z,1015.7
2017-04-24T06:58:14.482Z,1015.68
2017-04-24T06:59:36.689Z,1015.7
2017-04-24T07:00:59.208Z,1015.69
2017-04-24T07:02:21.107Z,1015.72
2017-04-24T07:03:42.739Z,1015.64
2017-04-24T07:05:04.269Z,1015.79
2017-04-24T07:06:26.659Z,1015.59
2017-04-24T07:07:48.718Z,1015.49
2017-04-24T07:09:10.868Z,1015.49
2017-04-24T07:10:32.417Z,1015.42
2017-04-24T07:11:54.864Z,1015.43
2017-04-24T07:13:17.350Z,1015.43
2017-04-24T07:14:39.703Z,1015.39
2017-04-24T07:16:01.515Z,1015.36
2017-04-24T07:17:23.658Z,1015.32
2017-04-24T07:18:45.168Z,1015.29
2017-04-24T07:20:07.108Z,1015.42
2017-04-24T07:21:28.619Z,1015.34
2017-04-24T07:22:50.818Z,1015.28
2017-04-24T07:24:12.411Z,1015.27
2017-04-24T07:25:34.681Z,1015.17
2017-04-24T07:26:57.151Z,1015.12
2017-04-24T07:28:19.019Z,1015.19
2017-04-24T07:29:41.466Z,1015.13
2017-04-24T07:31:02.360Z,1015.21
2017-04-24T07:32:24.508Z,1015.17
2017-04-24T07:33:47.091Z,1015.22
2017-04-24T07:35:09.570Z,1015.16
2017-04-24T07:36:31.716Z,1015.2
2017-04-24T07:37:53.219Z,1015.12
2017-04-24T07:39:15.249Z,1015.19
2017-04-24T07:40:37.068Z,1015.1
2017-04-24T07:41:58.588Z,1015.11
2017-04-24T07:43:19.839Z,1015.1
2017-04-24T07:44:42.286Z,1015.07
2017-04-24T07:46:04.119Z,1015.07
2017-04-24T07:47:25.651Z,1015.11
2017-04-24T07:48:46.848Z,1015.07
2017-04-24T07:50:09.300Z,1015
2017-04-24T07:51:31.481Z,1015.03
2017-04-24T07:52:53.630Z,1014.98
2017-04-24T07:54:15.808Z,1014.98
2017-04-24T07:55:37.358Z,1014.96
2017-04-24T07:56:58.918Z,1014.92
2017-04-24T07:58:20.550Z,1014.86
2017-04-24T07:59:42.498Z,1014.8
2017-04-24T08:01:05.015Z,1014.89
2017-04-24T08:02:27.150Z,1014.91
2017-04-24T08:03:49.461Z,1014.77
2017-04-24T08:05:11.618Z,1014.69
2017-04-24T08:06:33.733Z,1014.65
2017-04-24T08:07:55.899Z,1014.65
2017-04-24T08:09:18.054Z,1014.6
2017-04-24T08:10:39.598Z,1014.65
2017-04-24T08:12:02.069Z,1014.64
2017-04-24T08:13:23.292Z,1014.51
2017-04-24T08:14:45.139Z,1014.65
2017-04-24T08:16:06.689Z,1014.57
2017-04-24T08:17:28.806Z,1014.55
2017-04-24T08:18:50.367Z,1014.54
2017-04-24T08:20:12.249Z,1014.6
2017-04-24T08:21:34.088Z,1014.56
2017-04-24T08:22:56.163Z,1014.48
2017-04-24T08:24:18.670Z,1014.49
2017-04-24T08:25:40.541Z,1014.51
2017-04-24T08:27:02.380Z,1014.61
2017-04-24T08:28:24.508Z,1014.53
2017-04-24T08:29:46.040Z,1014.51
2017-04-24T08:31:08.618Z,1014.49
2017-04-24T08:32:30.764Z,1014.54
2017-04-24T08:33:53.675Z,1014.5
2017-04-24T08:35:15.523Z,1014.53
2017-04-24T08:36:37.681Z,1014.51
2017-04-24T08:37:59.847Z,1014.43
2017-04-24T08:39:21.713Z,1014.49
2017-04-24T08:40:43.869Z,1014.32
2017-04-24T08:42:06.021Z,1014.31
2017-04-24T08:43:27.591Z,1014.36
2017-04-24T08:44:49.732Z,1014.32
2017-04-24T08:46:11.583Z,1014.37
2017-04-24T08:47:33.404Z,1014.3
2017-04-24T08:48:55.260Z,1014.17
2017-04-24T08:50:17.396Z,1014.24
2017-04-24T08:51:38.918Z,1014.26
2017-04-24T08:53:01.088Z,1014.28
2017-04-24T08:54:22.918Z,1014.22
2017-04-24T08:55:45.551Z,1014.23
2017-04-24T08:57:07.508Z,1014.23
2017-04-24T08:58:29.659Z,1014.25
2017-04-24T08:59:51.180Z,1014.2
2017-04-24T09:01:13.752Z,1014.21
2017-04-24T09:02:36.214Z,1014.24
2017-04-24T09:03:57.725Z,1014.23
2017-04-24T09:05:19.901Z,1014.24
2017-04-24T09:06:42.083Z,1014.14
2017-04-24T09:08:03.928Z,1014.23
2017-04-24T09:09:26.456Z,1014.16
2017-04-24T09:10:48.722Z,1014.12
2017-04-24T09:12:10.978Z,1013.98
2017-04-24T09:13:33.528Z,1014.05
2017-04-24T09:14:55.459Z,1013.87
2017-04-24T09:16:17.799Z,1014.07
2017-04-24T09:17:40.321Z,1014.09
2017-04-24T09:19:02.211Z,1014.04
2017-04-24T09:20:24.467Z,1014.03
2017-04-24T09:21:45.990Z,1014.04
2017-04-24T09:23:08.113Z,1013.97
2017-04-24T09:24:29.951Z,1013.88
2017-04-24T09:25:52.124Z,1013.82
2017-04-24T09:27:14.000Z,1013.89
2017-04-24T09:28:36.124Z,1013.79
2017-04-24T09:29:58.282Z,1013.8
2017-04-24T09:31:19.869Z,1013.73
2017-04-24T09:32:41.698Z,1013.73
2017-04-24T09:34:03.479Z,1013.7
2017-04-24T09:35:25.155Z,1013.59
2017-04-24T09:36:47.289Z,1013.58
2017-04-24T09:38:09.428Z,1013.62
2017-04-24T09:39:31.220Z,1013.58
2017-04-24T09:40:52.470Z,1013.59
2017-04-24T09:42:14.656Z,1013.55
2017-04-24T09:43:36.887Z,1013.5
2017-04-24T09:44:59.400Z,1013.44
2017-04-24T09:46:21.963Z,1013.43
2017-04-24T09:47:44.158Z,1013.53
2017-04-24T09:49:06.001Z,1013.47
2017-04-24T09:50:28.528Z,1013.54
2017-04-24T09:51:50.364Z,1013.46
2017-04-24T09:53:12.195Z,1013.43
2017-04-24T09:54:33.718Z,1013.48
2017-04-24T09:55:56.468Z,1013.47
2017-04-24T09:57:18.747Z,1013.42
2017-04-24T09:58:40.909Z,1013.4
2017-04-24T10:00:03.070Z,1013.43
2017-04-24T10:01:25.288Z,1013.61
2017-04-24T10:02:47.237Z,1013.47
2017-04-24T10:04:09.719Z,1013.5
2017-04-24T10:05:31.266Z,1013.48
2017-04-24T10:06:54.078Z,1013.47
2017-04-24T10:08:15.609Z,1013.42
2017-04-24T10:09:37.761Z,1013.36
2017-04-24T10:10:59.597Z,1013.29
2017-04-24T10:12:21.736Z,1013.27
2017-04-24T10:13:44.018Z,1013.26
2017-04-24T10:15:37.842Z,1013.24
2017-04-24T10:17:00.401Z,1013.24
2017-04-24T10:18:22.810Z,1013.18
2017-04-24T10:19:45.267Z,1013.3
2017-04-24T10:21:07.827Z,1013.33
2017-04-24T10:22:30.025Z,1013.33
2017-04-24T10:23:51.854Z,1013.21
2017-04-24T10:25:13.688Z,1013.22
2017-04-24T10:26:35.837Z,1013.18
2017-04-24T10:27:58.675Z,1013.25
2017-04-24T10:29:21.158Z,1013.24
2017-04-24T10:30:42.420Z,1013.09
2017-04-24T10:32:04.248Z,1013.14
2017-04-24T10:33:27.107Z,1013.09
2017-04-24T10:34:48.627Z,1013.12
2017-04-24T10:36:10.848Z,1013.09
2017-04-24T10:37:33.072Z,1013.15
2017-04-24T10:38:55.519Z,1013.15
2017-04-24T10:40:17.410Z,1013.12
2017-04-24T10:41:38.759Z,1013.09
2017-04-24T10:43:00.913Z,1013.05
2017-04-24T10:44:23.389Z,1013.11
2017-04-24T10:45:45.870Z,1013.16
2017-04-24T10:47:07.698Z,1013.03
2017-04-24T10:48:29.217Z,1013.07
2017-04-24T10:49:51.050Z,1012.98
2017-04-24T10:51:12.247Z,1013.05
2017-04-24T10:52:33.757Z,1012.96
2017-04-24T10:53:55.702Z,1012.96
2017-04-24T10:55:18.230Z,1012.87
2017-04-24T10:56:40.407Z,1012.92
2017-04-24T10:58:01.927Z,1012.94
2017-04-24T10:59:23.764Z,1012.89
2017-04-24T11:00:45.864Z,1012.85
2017-04-24T11:02:08.008Z,1012.87
2017-04-24T11:03:29.519Z,1012.75
2017-04-24T11:04:51.687Z,1012.72
2017-04-24T11:06:14.128Z,1012.7
2017-04-24T11:07:36.308Z,1012.68
2017-04-24T11:08:58.479Z,1012.68
2017-04-24T11:10:20.747Z,1012.56
2017-04-24T11:11:42.507Z,1012.56
2017-04-24T11:13:05.005Z,1012.59
2017-04-24T11:14:27.170Z,1012.57
2017-04-24T11:15:49.010Z,1012.5
2017-04-24T11:17:11.148Z,1012.5
2017-04-24T11:18:32.987Z,1012.5
2017-04-24T11:19:55.229Z,1012.49
2017-04-24T11:21:17.497Z,1012.42
2017-04-24T11:22:40.413Z,1012.42
2017-04-24T11:24:02.570Z,1012.32
2017-04-24T11:25:24.074Z,1012.28
2017-04-24T11:26:45.589Z,1012.29
2017-04-24T11:28:08.351Z,1012.33
2017-04-24T11:29:30.558Z,1012.36
2017-04-24T11:30:52.404Z,1012.46
2017-04-24T11:32:14.929Z,1012.36
2017-04-24T11:33:37.095Z,1012.44
2017-04-24T11:34:58.933Z,1012.43
2017-04-24T11:36:21.098Z,1012.47
2017-04-24T11:37:43.679Z,1012.35
2017-04-24T11:39:06.401Z,1012.38
2017-04-24T11:40:27.922Z,1012.35
2017-04-24T11:41:49.837Z,1012.39
2017-04-24T11:43:11.983Z,1012.39
2017-04-24T11:44:34.437Z,1012.41
2017-04-24T11:45:56.258Z,1012.34
2017-04-24T11:47:18.094Z,1012.39
2017-04-24T11:48:40.248Z,1012.31
2017-04-24T11:50:03.076Z,1012.26
2017-04-24T11:51:24.898Z,1012.31
2017-04-24T11:52:47.048Z,1012.18
2017-04-24T11:54:08.270Z,1012.05
2017-04-24T11:55:30.839Z,1012.15
2017-04-24T11:56:53.096Z,1012.13
2017-04-24T11:58:15.367Z,1012.14
2017-04-24T11:59:37.508Z,1012.18
2017-04-24T12:00:59.989Z,1012.12
2017-04-24T12:02:22.138Z,1012.04
2017-04-24T12:03:44.712Z,1012.07
2017-04-24T12:05:06.896Z,1012.18
2017-04-24T12:06:29.390Z,1012.12
2017-04-24T12:07:51.553Z,1012.11
2017-04-24T12:09:13.068Z,1012.14
2017-04-24T12:10:34.908Z,1012.14
2017-04-24T12:11:57.247Z,1012.08
2017-04-24T12:13:19.724Z,1012.16
2017-04-24T12:14:41.574Z,1012.11
2017-04-24T12:16:03.737Z,1012.07
2017-04-24T12:17:25.968Z,1012.06
2017-04-24T12:18:47.799Z,1012.06
2017-04-24T12:20:09.971Z,1012.08
2017-04-24T12:21:32.293Z,1012.04
2017-04-24T12:22:54.058Z,1011.98
2017-04-24T12:24:16.170Z,1011.96
2017-04-24T12:25:38.328Z,1011.95
2017-04-24T12:27:00.999Z,1011.91
2017-04-24T12:28:23.119Z,1011.89
2017-04-24T12:29:44.967Z,1011.83
2017-04-24T12:31:07.127Z,1011.85
2017-04-24T12:32:29.069Z,1011.81
2017-04-24T12:33:51.521Z,1011.83
2017-04-24T12:35:14.209Z,1011.78
2017-04-24T12:36:36.378Z,1011.78
2017-04-24T12:37:58.948Z,1011.77
2017-04-24T12:39:20.890Z,1011.76
2017-04-24T12:40:43.449Z,1011.78
2017-04-24T12:42:05.617Z,1011.77
2017-04-24T12:43:27.277Z,1011.79
2017-04-24T12:44:49.000Z,1011.69
2017-04-24T12:46:11.468Z,1011.7
2017-04-24T12:47:33.614Z,1011.74
2017-04-24T12:48:55.778Z,1011.71
2017-04-24T12:50:17.638Z,1011.76
2017-04-24T12:51:39.778Z,1011.75
2017-04-24T12:53:01.927Z,1011.74
2017-04-24T12:54:23.788Z,1011.67
2017-04-24T12:55:45.916Z,1011.67
2017-04-24T12:57:07.849Z,1011.57
2017-04-24T12:58:30.350Z,1011.63
2017-04-24T12:59:52.224Z,1011.61
2017-04-24T13:01:14.100Z,1011.53
2017-04-24T13:02:36.019Z,1011.53
2017-04-24T13:03:57.852Z,1011.59
2017-04-24T13:05:20.119Z,1011.51
2017-04-24T13:06:42.940Z,1011.53
2017-04-24T13:08:05.110Z,1011.5
2017-04-24T13:09:27.479Z,1011.52
2017-04-24T13:10:49.313Z,1011.53
2017-04-24T13:12:11.764Z,1011.45
2017-04-24T13:13:33.919Z,1011.52
2017-04-24T13:14:56.078Z,1011.57
2017-04-24T13:16:18.658Z,1011.44
2017-04-24T13:17:40.872Z,1011.38
2017-04-24T13:19:03.168Z,1011.4
2017-04-24T13:20:25.629Z,1011.42
2017-04-24T13:21:47.908Z,1011.41
2017-04-24T13:23:10.018Z,1011.39
2017-04-24T13:24:31.837Z,1011.37
2017-04-24T13:25:54.090Z,1011.3
2017-04-24T13:27:16.232Z,1011.25
2017-04-24T13:28:38.398Z,1011.27
2017-04-24T13:30:00.928Z,1011.28
2017-04-24T13:31:22.756Z,1011.25
2017-04-24T13:32:44.948Z,1011.14
2017-04-24T13:34:07.540Z,1011.18
2017-04-24T13:35:30.038Z,1011.15
2017-04-24T13:36:52.189Z,1011.15
2017-04-24T13:38:14.365Z,1011.06
2017-04-24T13:39:37.257Z,1011.03
2017-04-24T13:40:59.418Z,1011.01
2017-04-24T13:42:21.269Z,1011
2017-04-24T13:43:43.731Z,1010.97
2017-04-24T13:45:05.197Z,1010.93
2017-04-24T13:46:27.039Z,1010.93
2017-04-24T13:47:49.509Z,1010.93
2017-04-24T13:49:11.691Z,1010.94
2017-04-24T13:50:33.839Z,1010.87
2017-04-24T13:51:55.740Z,1010.89
2017-04-24T13:53:18.223Z,1010.95
2017-04-24T13:54:40.389Z,1010.92
2017-04-24T13:56:02.923Z,1010.88
2017-04-24T13:57:25.209Z,1010.92
2017-04-24T13:58:47.049Z,1010.96
2017-04-24T14:00:08.897Z,1011.02
2017-04-24T14:01:30.792Z,1011.07
2017-04-24T14:02:52.624Z,1011.12
2017-04-24T14:04:15.119Z,1010.97
2017-04-24T14:05:37.380Z,1011.04
2017-04-24T14:07:00.241Z,1011.05
2017-04-24T14:08:22.442Z,1011.06
2017-04-24T14:09:44.267Z,1011.13
2017-04-24T14:11:06.426Z,1010.92
2017-04-24T14:12:28.577Z,1010.85
2017-04-24T14:13:50.736Z,1010.84
2017-04-24T14:15:12.718Z,1010.84
2017-04-24T14:16:35.197Z,1010.8
2017-04-24T14:17:57.473Z,1010.79
2017-04-24T14:19:19.318Z,1010.81
2017-04-24T14:20:41.698Z,1010.8
2017-04-24T14:22:03.247Z,1010.81
2017-04-24T14:23:25.727Z,1010.84
2017-04-24T14:24:47.565Z,1010.86
2017-04-24T14:26:09.408Z,1010.89
2017-04-24T14:27:31.240Z,1010.92
2017-04-24T14:28:54.056Z,1010.92
2017-04-24T14:30:16.621Z,1010.9
2017-04-24T14:31:38.451Z,1010.93
2017-04-24T14:33:00.618Z,1010.93
2017-04-24T14:34:23.016Z,1010.93
2017-04-24T14:35:45.179Z,1010.94
2017-04-24T14:37:07.708Z,1010.9
2017-04-24T14:38:29.540Z,1010.9
2017-04-24T14:39:51.829Z,1010.89
2017-04-24T14:41:13.733Z,1010.91
2017-04-24T14:42:36.212Z,1010.89
2017-04-24T14:43:58.411Z,1010.92
2017-04-24T14:45:20.830Z,1010.98
2017-04-24T14:46:42.979Z,1010.88
2017-04-24T14:48:05.139Z,1010.86
2017-04-24T14:49:27.338Z,1010.88
2017-04-24T14:50:49.737Z,1010.89
2017-04-24T14:52:11.358Z,1010.81
2017-04-24T14:53:33.238Z,1010.75
2017-04-24T14:54:54.792Z,1010.74
2017-04-24T14:56:17.326Z,1010.7
2017-04-24T14:57:39.997Z,1010.67
2017-04-24T14:59:01.521Z,1010.65
2017-04-24T15:00:23.731Z,1010.63
2017-04-24T15:01:45.540Z,1010.62
2017-04-24T15:03:07.382Z,1010.56
2017-04-24T15:04:29.591Z,1010.51
2017-04-24T15:05:51.739Z,1010.49
2017-04-24T15:07:14.019Z,1010.51
2017-04-24T15:08:36.528Z,1010.45
2017-04-24T15:09:58.053Z,1010.44
2017-04-24T15:11:20.229Z,1010.35
2017-04-24T15:12:42.750Z,1010.41
2017-04-24T15:14:04.930Z,1010.36
2017-04-24T15:15:27.447Z,1010.35
2017-04-24T15:16:49.060Z,1010.37
2017-04-24T15:18:11.162Z,1010.4
2017-04-24T15:19:33.472Z,1010.36
2017-04-24T15:20:55.305Z,1010.36
2017-04-24T15:22:16.851Z,1010.31
2017-04-24T15:23:38.818Z,1010.34
2017-04-24T15:25:00.668Z,1010.31
2017-04-24T15:26:22.829Z,1010.29
2017-04-24T15:27:44.679Z,1010.27
2017-04-24T15:29:06.794Z,1010.22
2017-04-24T15:30:28.410Z,1010.25
2017-04-24T15:31:50.922Z,1010.18
2017-04-24T15:33:12.183Z,1010.17
2017-04-24T15:34:34.661Z,1010.19
2017-04-24T15:35:56.543Z,1010.11
2017-04-24T15:37:19.115Z,1010.14
2017-04-24T15:38:41.422Z,1010.14
2017-04-24T15:40:03.697Z,1010.24
2017-04-24T15:41:26.177Z,1010.21
2017-04-24T15:42:47.702Z,1010.22
2017-04-24T15:44:10.340Z,1010.17
2017-04-24T15:45:32.559Z,1010.15
2017-04-24T15:46:54.408Z,1010.18
2017-04-24T15:48:17.005Z,1010.12
2017-04-24T15:49:39.516Z,1010.1
2017-04-24T15:51:01.018Z,1010.09
2017-04-24T15:52:23.588Z,1010.13
2017-04-24T15:53:46.089Z,1010.12
2017-04-24T15:55:08.288Z,1010.16
2017-04-24T15:56:30.800Z,1010.12
2017-04-24T15:57:53.399Z,1010.09
2017-04-24T15:59:15.409Z,1010.11
2017-04-24T16:00:37.588Z,1010.1
2017-04-24T16:02:00.487Z,1010.07
2017-04-24T16:03:23.028Z,1010.07
2017-04-24T16:04:45.238Z,1010.03
2017-04-24T16:06:07.452Z,1009.99
2017-04-24T16:07:30.201Z,1009.98
2017-04-24T16:08:52.379Z,1010.02
2017-04-24T16:10:14.230Z,1009.96
2017-04-24T16:11:36.068Z,1009.95
2017-04-24T16:12:57.912Z,1009.94
2017-04-24T16:14:19.772Z,1009.93
2017-04-24T16:15:42.115Z,1009.91
2017-04-24T16:17:04.595Z,1009.91
2017-04-24T16:18:27.026Z,1009.92
2017-04-24T16:19:48.883Z,1009.88
2017-04-24T16:21:43.021Z,1009.94
2017-04-24T16:23:05.500Z,1010.07
2017-04-24T16:24:27.981Z,1010.17
2017-04-24T16:25:50.503Z,1010.07
2017-04-24T16:27:12.318Z,1009.96
2017-04-24T16:28:34.891Z,1010
2017-04-24T16:29:57.079Z,1010.01
2017-04-24T16:31:18.961Z,1010.05
2017-04-24T16:32:41.533Z,1009.9
2017-04-24T16:34:04.108Z,1009.97
2017-04-24T16:35:26.081Z,1009.98
2017-04-24T16:36:48.589Z,1009.95
2017-04-24T16:38:11.078Z,1009.97